Time;durP1;ratioP1;P1;durP2;ratioP2;P2;SDS_P1;SDS_P2;PMS_P1;PMS_P2;Temp;Humidity;BMP_temperature;BMP_pressure;BME280_temperature;BME280_humidity;BME280_pressure;Samples;Min_cycle;Max_cycle;Signal;HPM_P1;HPM_P2
2020/12/13 00:50:57;;;;;;;52.03;36.27;;;;;;;;;;6236395;22;20442;-96
2020/12/13 00:53:26;;;;;;;56.10;37.83;;;;;;;;;;6243553;23;20473;-96
2020/12/13 00:55:53;;;;;;;54.93;35.17;;;;;;;;;;6241934;23;20409;-96
2020/12/13 01:16:39;;;;;;;58.50;37.47;;;;;;;;;;6224179;22;20454;-96
2020/12/13 01:19:06;;;;;;;54.83;38.47;;;;;;;;;;6229162;23;20477;-96
2020/12/13 01:21:32;;;;;;;61.60;39.50;;;;;;;;;;6229380;23;20395;-96
2020/12/13 01:23:58;;;;;;;49.23;34.60;;;;;;;;;;6225431;23;20490;-96
2020/12/13 01:26:25;;;;;;;44.03;31.00;;;;;;;;;;6226675;23;20438;-96
2020/12/13 01:28:51;;;;;;;52.80;32.30;;;;;;;;;;6227344;23;20411;-96
2020/12/13 01:31:18;;;;;;;46.43;32.27;;;;;;;;;;6228064;23;20442;-96
2020/12/13 01:33:47;;;;;;;47.80;32.03;;;;;;;;;;6224674;23;20458;-96
2020/12/13 01:36:13;;;;;;;50.20;33.57;;;;;;;;;;6226489;23;20482;-96
2020/12/13 01:38:40;;;;;;;49.73;33.67;;;;;;;;;;6227507;23;20418;-96
2020/12/13 01:41:06;;;;;;;46.40;33.07;;;;;;;;;;6226958;23;20897;-96
2020/12/13 01:43:32;;;;;;;53.03;34.10;;;;;;;;;;6228034;23;21011;-96
2020/12/13 01:45:58;;;;;;;49.37;33.53;;;;;;;;;;6226703;23;20426;-96
2020/12/13 01:48:25;;;;;;;49.20;31.30;;;;;;;;;;6226173;23;20424;-96
2020/12/13 01:50:58;;;;;;;46.67;32.03;;;;;;;;;;6226758;23;20438;-96
2020/12/13 01:53:25;;;;;;;47.33;32.00;;;;;;;;;;6232012;23;20450;-96
2020/12/13 01:55:53;;;;;;;54.40;35.13;;;;;;;;;;6231599;23;21325;-96
2020/12/13 01:58:21;;;;;;;51.77;35.50;;;;;;;;;;6232583;23;20482;-96
2020/12/13 02:00:48;;;;;;;51.10;34.00;;;;;;;;;;6235051;23;20418;-96
2020/12/13 02:11:53;;;;;;;46.40;32.20;;;;;;;;;;6211395;22;20451;-96
2020/12/13 02:14:22;;;;;;;52.50;32.60;;;;;;;;;;6209888;23;20391;-96
2020/12/13 02:19:49;;;;;;;48.90;31.67;;;;;;;;;;6216472;22;20460;-96
2020/12/13 02:24:49;;;;;;;46.90;31.57;;;;;;;;;;6209832;23;20451;-96
2020/12/13 02:27:38;;;;;;;50.23;35.43;;;;;;;;;;6210086;22;20436;-96
2020/12/13 02:45:38;;;;;;;55.67;33.70;;;;;;;;;;6248787;22;20532;-96
2020/12/13 02:53:46;;;;;;;56.07;35.03;;;;;;;;;;6269821;22;20433;-96
2020/12/13 02:56:15;;;;;;;52.23;33.73;;;;;;;;;;6273648;23;20429;-96
2020/12/13 03:01:18;;;;;;;50.97;35.50;;;;;;;;;;6231246;22;20469;-96
2020/12/13 03:03:57;;;;;;;47.97;32.77;;;;;;;;;;6246377;22;20492;-96
2020/12/13 03:06:23;;;;;;;50.30;33.90;;;;;;;;;;6270807;23;20426;-96
2020/12/13 03:08:53;;;;;;;48.90;32.97;;;;;;;;;;6269909;23;20425;-96
2020/12/13 03:11:45;;;;;;;48.67;34.37;;;;;;;;;;6267558;23;20452;-96
2020/12/13 03:20:29;;;;;;;58.43;35.60;;;;;;;;;;6228831;22;20458;-96
2020/12/13 03:22:56;;;;;;;55.33;35.00;;;;;;;;;;6272086;22;20412;-96
2020/12/13 03:28:37;;;;;;;53.77;32.23;;;;;;;;;;6276764;22;20381;-96
2020/12/13 03:37:07;;;;;;;54.50;34.20;;;;;;;;;;6228030;22;20456;-96
2020/12/13 03:42:16;;;;;;;62.57;39.03;;;;;;;;;;6244632;22;20989;-96
2020/12/13 03:44:42;;;;;;;58.43;36.63;;;;;;;;;;6271821;22;20419;-96
2020/12/13 03:47:08;;;;;;;54.00;34.77;;;;;;;;;;6275303;22;20461;-96
2020/12/13 03:49:35;;;;;;;48.73;32.10;;;;;;;;;;6273500;23;20423;-96
2020/12/13 03:52:04;;;;;;;53.33;33.40;;;;;;;;;;6272783;22;20437;-96
2020/12/13 03:54:45;;;;;;;49.40;32.30;;;;;;;;;;6270094;23;20397;-96
2020/12/13 03:57:20;;;;;;;46.10;30.87;;;;;;;;;;6273053;23;20424;-96
2020/12/13 03:59:49;;;;;;;48.17;30.77;;;;;;;;;;6272958;23;20471;-96
2020/12/13 04:13:29;;;;;;;40.60;25.77;;;;;;;;;;6243844;22;20457;-96
2020/12/13 04:15:59;;;;;;;40.80;26.17;;;;;;;;;;6272750;23;20420;-96
2020/12/13 04:21:52;;;;;;;45.63;28.70;;;;;;;;;;6264585;23;20401;-96
2020/12/13 04:24:19;;;;;;;44.53;29.40;;;;;;;;;;6268623;22;20428;-96
2020/12/13 04:26:48;;;;;;;48.43;28.40;;;;;;;;;;6264160;23;20445;-96
2020/12/13 04:29:15;;;;;;;50.33;30.67;;;;;;;;;;6261487;23;20412;-96
2020/12/13 04:31:42;;;;;;;42.67;27.80;;;;;;;;;;6263871;23;20445;-96
2020/12/13 04:34:08;;;;;;;35.93;24.63;;;;;;;;;;6263291;23;20414;-96
2020/12/13 04:53:01;;;;;;;33.70;23.20;;;;;;;;;;6187547;22;20393;-96
2020/12/13 04:58:27;;;;;;;37.57;24.53;;;;;;;;;;6239323;23;20398;-96
2020/12/13 05:06:44;;;;;;;37.10;23.00;;;;;;;;;;6233589;23;20445;-96
2020/12/13 05:09:21;;;;;;;42.72;24.08;;;;;;;;;;6229927;23;20419;-96
2020/12/13 05:11:47;;;;;;;40.07;24.33;;;;;;;;;;6229391;23;20194;-96
2020/12/13 05:14:13;;;;;;;37.03;24.95;;;;;;;;;;6229134;23;20482;-96
2020/12/13 05:16:40;;;;;;;39.15;25.30;;;;;;;;;;6228628;23;20758;-96
2020/12/13 05:19:06;;;;;;;43.10;26.07;;;;;;;;;;6226794;23;20188;-96
2020/12/13 05:21:34;;;;;;;34.40;23.40;;;;;;;;;;6227415;23;20442;-96
2020/12/13 05:24:03;;;;;;;39.20;24.70;;;;;;;;;;6229396;23;20421;-95
2020/12/13 05:26:32;;;;;;;39.93;25.60;;;;;;;;;;6231210;23;20478;-96
2020/12/13 05:29:01;;;;;;;36.07;24.50;;;;;;;;;;6234438;23;20419;-96
2020/12/13 05:31:34;;;;;;;40.90;24.50;;;;;;;;;;6233408;23;20421;-96
2020/12/13 05:34:14;;;;;;;35.70;23.60;;;;;;;;;;6234676;23;20423;-96
2020/12/13 05:36:45;;;;;;;39.70;25.00;;;;;;;;;;6237472;22;20453;-96
2020/12/13 05:39:28;;;;;;;44.73;28.83;;;;;;;;;;6269563;23;20464;-96
2020/12/13 05:42:00;;;;;;;43.73;27.70;;;;;;;;;;6266965;23;20410;-96
2020/12/13 05:47:31;;;;;;;45.07;29.90;;;;;;;;;;6255830;23;20400;-96
2020/12/13 05:52:44;;;;;;;45.77;27.37;;;;;;;;;;6260138;23;20476;-96
2020/12/13 05:55:11;;;;;;;54.63;35.17;;;;;;;;;;6258445;23;20441;-96
2020/12/13 05:58:03;;;;;;;61.92;37.58;;;;;;;;;;6261409;23;20417;-96
2020/12/13 06:05:49;;;;;;;60.47;39.17;;;;;;;;;;6224728;22;20461;-96
2020/12/13 06:08:22;;;;;;;60.43;37.77;;;;;;;;;;6240625;23;20386;-96
2020/12/13 06:10:51;;;;;;;59.63;37.40;;;;;;;;;;6242110;23;20398;-96
2020/12/13 06:22:29;;;;;;;58.03;34.70;;;;;;;;;;6245458;22;20435;-96
2020/12/13 06:24:57;;;;;;;57.53;35.63;;;;;;;;;;6239738;23;20423;-96
2020/12/13 06:27:29;;;;;;;51.60;35.67;;;;;;;;;;6237234;23;20466;-96
2020/12/13 06:29:57;;;;;;;49.80;32.60;;;;;;;;;;6236432;23;20439;-96
2020/12/13 06:32:23;;;;;;;48.73;32.13;;;;;;;;;;6229769;23;20441;-96
2020/12/13 06:34:49;;;;;;;51.30;34.10;;;;;;;;;;6225637;23;20417;-95
2020/12/13 06:37:16;;;;;;;50.90;34.77;;;;;;;;;;6223105;23;20418;-96
2020/12/13 06:39:45;;;;;;;51.90;34.67;;;;;;;;;;6231953;23;20398;-96
2020/12/13 06:42:13;;;;;;;52.73;33.37;;;;;;;;;;6231383;23;20422;-96
2020/12/13 06:44:43;;;;;;;52.67;32.60;;;;;;;;;;6237571;23;20422;-96
2020/12/13 06:47:23;;;;;;;45.63;29.80;;;;;;;;;;6234557;23;20398;-96
2020/12/13 06:49:53;;;;;;;44.47;28.40;;;;;;;;;;6234416;23;20429;-96
2020/12/13 06:58:17;;;;;;;44.07;29.23;;;;;;;;;;6255971;23;20417;-96
2020/12/13 07:00:52;;;;;;;42.23;26.97;;;;;;;;;;6256606;23;20430;-96
2020/12/13 07:03:25;;;;;;;36.50;24.53;;;;;;;;;;6256584;23;20437;-96
2020/12/13 07:05:55;;;;;;;34.17;22.90;;;;;;;;;;6257308;23;20413;-96
2020/12/13 07:08:23;;;;;;;34.03;22.17;;;;;;;;;;6257274;23;20476;-96
2020/12/13 07:10:51;;;;;;;31.10;21.70;;;;;;;;;;6257448;23;20402;-96
2020/12/13 07:13:22;;;;;;;32.20;21.50;;;;;;;;;;6263938;23;20458;-96
2020/12/13 07:15:52;;;;;;;35.10;23.67;;;;;;;;;;6263461;23;20421;-96
2020/12/13 07:18:19;;;;;;;37.27;23.40;;;;;;;;;;6258650;23;20418;-96
2020/12/13 07:20:45;;;;;;;33.03;22.83;;;;;;;;;;6256531;23;20412;-96
2020/12/13 07:23:12;;;;;;;43.20;24.10;;;;;;;;;;6258139;23;20463;-96
2020/12/13 07:25:38;;;;;;;36.20;24.27;;;;;;;;;;6257084;23;20452;-96
2020/12/13 07:28:05;;;;;;;35.00;25.50;;;;;;;;;;6258003;23;20433;-96
2020/12/13 07:30:33;;;;;;;34.27;24.10;;;;;;;;;;6257611;23;20410;-96
2020/12/13 07:32:59;;;;;;;38.40;24.60;;;;;;;;;;6257142;23;20505;-96
2020/12/13 07:35:25;;;;;;;36.27;25.00;;;;;;;;;;6258036;23;20458;-95
2020/12/13 07:37:52;;;;;;;35.40;23.83;;;;;;;;;;6257361;23;20437;-96
2020/12/13 07:40:18;;;;;;;40.53;26.20;;;;;;;;;;6257223;23;20456;-95
2020/12/13 07:42:53;;;;;;;38.57;25.10;;;;;;;;;;6255226;23;20420;-94
2020/12/13 07:45:19;;;;;;;39.23;27.30;;;;;;;;;;6256441;23;20405;-93
2020/12/13 07:48:09;;;;;;;44.33;28.90;;;;;;;;;;6254485;23;20421;-96
2020/12/13 07:50:44;;;;;;;47.70;30.20;;;;;;;;;;6265039;23;20402;-96
2020/12/13 07:53:24;;;;;;;49.17;31.67;;;;;;;;;;6244123;23;20476;-96
2020/12/13 07:55:56;;;;;;;46.33;32.97;;;;;;;;;;6271215;23;20437;-96
2020/12/13 08:04:22;;;;;;;40.10;26.90;;;;;;;;;;6204937;23;20467;-96
2020/12/13 08:09:27;;;;;;;52.17;34.30;;;;;;;;;;6238856;22;20753;-96
2020/12/13 08:14:34;;;;;;;55.20;35.80;;;;;;;;;;6206260;23;20406;-96
2020/12/13 08:17:01;;;;;;;45.43;30.60;;;;;;;;;;6235114;23;20415;-96
2020/12/13 08:19:32;;;;;;;42.50;28.80;;;;;;;;;;6236221;23;20415;-96
2020/12/13 08:24:55;;;;;;;38.10;26.30;;;;;;;;;;6231433;23;20418;-96
2020/12/13 08:27:26;;;;;;;49.53;33.00;;;;;;;;;;6236031;23;20403;-96
2020/12/13 08:29:55;;;;;;;54.50;32.00;;;;;;;;;;6237295;23;20441;-96
2020/12/13 08:37:41;;;;;;;48.70;31.50;;;;;;;;;;6237691;22;20442;-96
2020/12/13 08:42:40;;;;;;;42.20;28.90;;;;;;;;;;6243585;22;20438;-96
2020/12/13 08:45:07;;;;;;;46.73;28.03;;;;;;;;;;6266854;23;20405;-96
2020/12/13 08:47:36;;;;;;;42.80;28.03;;;;;;;;;;6238404;23;20410;-96
2020/12/13 08:50:22;;;;;;;42.03;29.20;;;;;;;;;;6240330;23;20413;-96
2020/12/13 08:52:49;;;;;;;49.30;31.30;;;;;;;;;;6269233;23;20451;-96
2020/12/13 08:55:28;;;;;;;47.33;32.23;;;;;;;;;;6254159;22;20426;-96
2020/12/13 08:58:00;;;;;;;51.27;31.80;;;;;;;;;;6258550;23;20409;-96
2020/12/13 09:00:27;;;;;;;49.87;33.00;;;;;;;;;;6257213;23;20417;-94
2020/12/13 09:02:58;;;;;;;52.33;35.00;;;;;;;;;;6253747;23;20424;-96
2020/12/13 09:05:25;;;;;;;56.13;37.40;;;;;;;;;;6253421;23;20428;-96
2020/12/13 09:07:53;;;;;;;57.00;40.40;;;;;;;;;;6257049;23;20421;-95
2020/12/13 09:10:19;;;;;;;51.27;36.60;;;;;;;;;;6256477;23;20433;-95
2020/12/13 09:12:46;;;;;;;53.47;36.40;;;;;;;;;;6257843;23;20460;-95
2020/12/13 09:15:13;;;;;;;54.87;37.17;;;;;;;;;;6253524;23;20417;-96
2020/12/13 09:17:40;;;;;;;51.63;35.37;;;;;;;;;;6258001;23;20413;-96
2020/12/13 09:20:06;;;;;;;49.57;33.20;;;;;;;;;;6260508;23;20493;-96
2020/12/13 09:22:32;;;;;;;48.83;33.30;;;;;;;;;;6252903;23;20432;-95
2020/12/13 09:24:58;;;;;;;49.93;32.30;;;;;;;;;;6254927;23;20409;-93
2020/12/13 09:27:25;;;;;;;48.60;33.57;;;;;;;;;;6253924;23;20418;-95
2020/12/13 09:29:51;;;;;;;41.13;29.50;;;;;;;;;;6255070;23;20408;-95
2020/12/13 09:32:24;;;;;;;43.83;29.70;;;;;;;;;;6256881;23;20452;-96
2020/12/13 09:34:58;;;;;;;39.90;25.50;;;;;;;;;;6270107;22;20425;-96
2020/12/13 09:37:24;;;;;;;35.83;24.03;;;;;;;;;;6262249;22;20421;-96
2020/12/13 09:39:50;;;;;;;32.20;24.43;;;;;;;;;;6256986;23;20406;-96
2020/12/13 09:42:17;;;;;;;32.10;22.20;;;;;;;;;;6255850;23;20441;-96
2020/12/13 09:44:47;;;;;;;38.27;25.23;;;;;;;;;;6254491;23;20485;-96
2020/12/13 09:47:13;;;;;;;35.77;25.20;;;;;;;;;;6255588;23;20440;-96
2020/12/13 09:49:40;;;;;;;29.57;21.00;;;;;;;;;;6254480;23;20436;-96
2020/12/13 09:52:06;;;;;;;28.33;21.70;;;;;;;;;;6253876;23;20521;-95
2020/12/13 09:54:33;;;;;;;29.40;19.33;;;;;;;;;;6252476;23;20429;-95
2020/12/13 09:56:59;;;;;;;27.43;20.37;;;;;;;;;;6254626;23;20422;-96
2020/12/13 09:59:26;;;;;;;34.20;20.77;;;;;;;;;;6255253;23;20438;-96
2020/12/13 10:01:52;;;;;;;29.97;21.20;;;;;;;;;;6257477;23;20417;-96
2020/12/13 10:04:20;;;;;;;28.63;20.37;;;;;;;;;;6256406;23;20496;-96
2020/12/13 10:06:59;;;;;;;24.23;18.27;;;;;;;;;;6261666;23;20409;-96
2020/12/13 10:09:24;;;;;;;26.90;18.93;;;;;;;;;;6256463;23;20481;-96
2020/12/13 10:11:51;;;;;;;28.30;20.47;;;;;;;;;;6251945;23;20418;-96
2020/12/13 10:14:17;;;;;;;32.30;20.87;;;;;;;;;;6253682;23;20648;-96
2020/12/13 10:16:43;;;;;;;29.80;20.13;;;;;;;;;;6254233;23;20473;-95
2020/12/13 10:19:10;;;;;;;34.40;22.57;;;;;;;;;;6255348;23;20425;-96
2020/12/13 10:21:36;;;;;;;30.37;22.80;;;;;;;;;;6253750;23;20412;-96
2020/12/13 10:24:03;;;;;;;32.50;23.23;;;;;;;;;;6253108;23;20406;-95
2020/12/13 10:26:31;;;;;;;32.40;22.77;;;;;;;;;;6251579;23;20429;-95
2020/12/13 10:28:58;;;;;;;34.43;23.10;;;;;;;;;;6241663;23;20420;-95
2020/12/13 10:31:28;;;;;;;35.87;23.63;;;;;;;;;;6249973;23;20418;-96
2020/12/13 10:33:54;;;;;;;36.63;24.20;;;;;;;;;;6251930;23;20457;-95
2020/12/13 10:36:20;;;;;;;32.13;24.27;;;;;;;;;;6249694;23;20413;-95
2020/12/13 10:38:48;;;;;;;37.10;25.10;;;;;;;;;;6249592;23;20401;-95
2020/12/13 10:41:16;;;;;;;38.80;23.40;;;;;;;;;;6250692;23;20418;-96
2020/12/13 10:43:42;;;;;;;37.93;23.90;;;;;;;;;;6250062;23;20819;-95
2020/12/13 10:46:08;;;;;;;33.90;23.87;;;;;;;;;;6251565;23;20471;-95
2020/12/13 10:48:34;;;;;;;34.17;25.27;;;;;;;;;;6251599;23;20440;-95
2020/12/13 10:51:01;;;;;;;39.00;23.77;;;;;;;;;;6258447;23;20475;-95
2020/12/13 10:53:28;;;;;;;35.90;24.53;;;;;;;;;;6258422;23;20828;-96
2020/12/13 10:55:54;;;;;;;38.67;25.30;;;;;;;;;;6256145;23;20422;-96
2020/12/13 10:58:22;;;;;;;42.53;29.20;;;;;;;;;;6258130;23;20437;-95
2020/12/13 11:00:48;;;;;;;36.50;25.90;;;;;;;;;;6256393;23;20419;-96
2020/12/13 11:03:14;;;;;;;40.43;28.20;;;;;;;;;;6258243;23;20403;-96
2020/12/13 11:05:41;;;;;;;41.07;26.20;;;;;;;;;;6256141;23;20414;-96
2020/12/13 11:08:07;;;;;;;36.37;25.73;;;;;;;;;;6258364;23;20414;-96
2020/12/13 11:10:33;;;;;;;36.20;25.50;;;;;;;;;;6256336;23;20408;-96
2020/12/13 11:13:00;;;;;;;34.10;25.60;;;;;;;;;;6253806;23;21027;-96
2020/12/13 11:15:27;;;;;;;30.67;22.70;;;;;;;;;;6260029;23;20761;-96
2020/12/13 11:17:53;;;;;;;29.03;21.60;;;;;;;;;;6262110;23;20407;-95
2020/12/13 11:20:19;;;;;;;28.90;21.00;;;;;;;;;;6264813;23;20405;-96
2020/12/13 11:22:45;;;;;;;27.53;20.43;;;;;;;;;;6256777;23;20402;-96
2020/12/13 11:25:11;;;;;;;27.43;19.87;;;;;;;;;;6258479;23;20416;-94
2020/12/13 11:27:37;;;;;;;28.47;20.60;;;;;;;;;;6257464;23;20520;-95
2020/12/13 11:30:05;;;;;;;31.30;21.07;;;;;;;;;;6258566;23;20415;-94
2020/12/13 11:32:32;;;;;;;30.10;19.67;;;;;;;;;;6257565;23;20466;-94
2020/12/13 11:34:58;;;;;;;28.30;19.70;;;;;;;;;;6258378;23;20405;-94
2020/12/13 11:37:24;;;;;;;31.63;21.83;;;;;;;;;;6258483;23;20421;-95
2020/12/13 11:39:50;;;;;;;27.67;20.20;;;;;;;;;;6257613;23;20985;-95
2020/12/13 11:42:18;;;;;;;23.77;18.17;;;;;;;;;;6259019;23;20443;-96
2020/12/13 11:44:45;;;;;;;25.30;19.70;;;;;;;;;;6258215;23;20421;-95
2020/12/13 11:47:11;;;;;;;31.90;19.90;;;;;;;;;;6257907;23;20434;-95
2020/12/13 11:49:38;;;;;;;26.90;21.00;;;;;;;;;;6258330;23;20485;-94
2020/12/13 11:52:04;;;;;;;28.63;20.70;;;;;;;;;;6259411;23;20433;-95
2020/12/13 11:54:30;;;;;;;29.70;21.87;;;;;;;;;;6257321;23;20475;-95
2020/12/13 11:56:56;;;;;;;26.73;20.87;;;;;;;;;;6255716;23;20427;-95
2020/12/13 11:59:23;;;;;;;30.53;21.83;;;;;;;;;;6258647;23;20415;-96
2020/12/13 12:01:49;;;;;;;27.47;21.07;;;;;;;;;;6252055;23;20407;-95
2020/12/13 12:04:15;;;;;;;28.73;22.10;;;;;;;;;;6255971;23;20438;-94
2020/12/13 12:06:44;;;;;;;30.73;21.77;;;;;;;;;;6252874;23;20406;-94
2020/12/13 12:09:10;;;;;;;34.57;21.87;;;;;;;;;;6253567;23;20405;-94
2020/12/13 12:11:36;;;;;;;30.20;22.20;;;;;;;;;;6252272;23;20473;-94
2020/12/13 12:14:02;;;;;;;28.17;21.83;;;;;;;;;;6255588;23;21294;-93
2020/12/13 12:16:29;;;;;;;30.87;24.00;;;;;;;;;;6255254;23;20403;-93
2020/12/13 12:18:55;;;;;;;31.70;21.87;;;;;;;;;;6249313;23;20464;-94
2020/12/13 12:21:24;;;;;;;32.10;23.00;;;;;;;;;;6249772;23;20405;-95
2020/12/13 12:23:51;;;;;;;38.13;22.30;;;;;;;;;;6247869;23;20408;-95
2020/12/13 12:26:17;;;;;;;33.60;23.27;;;;;;;;;;6249939;23;20848;-94
2020/12/13 12:28:43;;;;;;;31.10;23.00;;;;;;;;;;6249547;23;20418;-94
2020/12/13 12:31:09;;;;;;;34.77;22.07;;;;;;;;;;6250620;23;20408;-94
2020/12/13 12:33:35;;;;;;;34.30;22.87;;;;;;;;;;6249456;23;20459;-95
2020/12/13 12:36:01;;;;;;;31.30;23.07;;;;;;;;;;6252656;23;21052;-95
2020/12/13 12:38:30;;;;;;;29.33;22.63;;;;;;;;;;6253587;23;20417;-94
2020/12/13 12:40:57;;;;;;;28.47;22.30;;;;;;;;;;6250392;23;20741;-94
2020/12/13 12:43:23;;;;;;;31.93;22.63;;;;;;;;;;6254807;23;20430;-95
2020/12/13 12:45:49;;;;;;;33.60;23.70;;;;;;;;;;6254574;23;20421;-95
2020/12/13 12:48:16;;;;;;;29.93;22.60;;;;;;;;;;6253644;23;20414;-96
2020/12/13 12:50:42;;;;;;;32.07;23.90;;;;;;;;;;6254159;23;21410;-94
2020/12/13 12:53:08;;;;;;;29.47;22.77;;;;;;;;;;6254382;23;20450;-93
2020/12/13 12:55:34;;;;;;;27.03;20.93;;;;;;;;;;6254768;22;20423;-96
2020/12/13 12:58:02;;;;;;;31.13;21.57;;;;;;;;;;6252098;23;20412;-95
2020/12/13 13:03:11;;;;;;;30.60;22.73;;;;;;;;;;6256667;23;20437;-95
2020/12/13 13:05:45;;;;;;;32.30;23.07;;;;;;;;;;6262715;23;20415;-94
2020/12/13 13:08:16;;;;;;;32.90;22.87;;;;;;;;;;6253848;23;20441;-93
2020/12/13 13:10:43;;;;;;;30.33;19.80;;;;;;;;;;6253773;23;20417;-94
2020/12/13 13:13:10;;;;;;;20.20;14.80;;;;;;;;;;6254097;23;20448;-94
2020/12/13 13:15:47;;;;;;;21.47;16.00;;;;;;;;;;6258977;23;20412;-94
2020/12/13 13:18:16;;;;;;;20.80;15.20;;;;;;;;;;6258783;23;20411;-96
2020/12/13 13:20:42;;;;;;;19.40;14.53;;;;;;;;;;6256382;23;20472;-95
2020/12/13 13:23:08;;;;;;;25.60;16.50;;;;;;;;;;6254058;23;20413;-94
2020/12/13 13:25:34;;;;;;;20.03;15.10;;;;;;;;;;6252410;23;20420;-96
2020/12/13 13:28:00;;;;;;;20.57;15.70;;;;;;;;;;6256052;23;20477;-94
2020/12/13 13:30:28;;;;;;;22.10;16.80;;;;;;;;;;6249840;23;20414;-93
2020/12/13 13:32:54;;;;;;;23.17;16.00;;;;;;;;;;6249359;23;20434;-94
2020/12/13 13:35:20;;;;;;;21.40;16.97;;;;;;;;;;6250116;23;20423;-94
2020/12/13 13:37:46;;;;;;;25.67;16.57;;;;;;;;;;6250082;23;20407;-94
2020/12/13 13:40:12;;;;;;;23.83;17.13;;;;;;;;;;6244817;23;20411;-95
2020/12/13 13:42:38;;;;;;;29.00;18.03;;;;;;;;;;6246309;23;20463;-94
2020/12/13 13:45:11;;;;;;;22.57;17.53;;;;;;;;;;6247889;23;20407;-95
2020/12/13 13:47:50;;;;;;;24.27;16.03;;;;;;;;;;6246507;23;20436;-94
2020/12/13 13:50:15;;;;;;;25.20;18.80;;;;;;;;;;6247680;23;20434;-94
2020/12/13 13:52:41;;;;;;;23.83;16.97;;;;;;;;;;6245069;23;20450;-95
2020/12/13 13:55:12;;;;;;;24.50;19.43;;;;;;;;;;6252026;23;20201;-95
2020/12/13 13:57:39;;;;;;;25.67;18.30;;;;;;;;;;6253439;23;20450;-96
2020/12/13 14:00:06;;;;;;;27.87;19.27;;;;;;;;;;6254909;23;20433;-94
2020/12/13 14:02:32;;;;;;;31.83;22.30;;;;;;;;;;6252380;23;20401;-95
2020/12/13 14:05:00;;;;;;;37.07;24.60;;;;;;;;;;6254758;23;20422;-94
2020/12/13 14:07:50;;;;;;;36.00;25.30;;;;;;;;;;6252783;23;20413;-94
2020/12/13 14:10:16;;;;;;;36.03;24.70;;;;;;;;;;6251930;23;20408;-94
2020/12/13 14:12:42;;;;;;;41.30;28.37;;;;;;;;;;6254312;23;20449;-95
2020/12/13 14:15:08;;;;;;;37.90;26.03;;;;;;;;;;6252295;22;20403;-95
2020/12/13 14:17:34;;;;;;;35.13;24.27;;;;;;;;;;6252968;23;20457;-95
2020/12/13 14:20:01;;;;;;;35.63;25.37;;;;;;;;;;6251181;23;20418;-95
2020/12/13 14:22:27;;;;;;;35.00;26.23;;;;;;;;;;6255322;23;20493;-96
2020/12/13 14:24:53;;;;;;;40.43;26.47;;;;;;;;;;6235955;22;20454;-96
2020/12/13 14:27:19;;;;;;;42.73;28.17;;;;;;;;;;6226881;23;20411;-95
2020/12/13 14:29:48;;;;;;;43.67;29.07;;;;;;;;;;6223564;23;20480;-94
2020/12/13 14:32:14;;;;;;;44.13;31.10;;;;;;;;;;6227581;23;20443;-96
2020/12/13 14:34:40;;;;;;;43.13;30.40;;;;;;;;;;6226436;23;20477;-96
2020/12/13 14:37:07;;;;;;;47.70;32.93;;;;;;;;;;6225189;23;20402;-94
2020/12/13 14:39:33;;;;;;;39.43;27.60;;;;;;;;;;6222693;23;20418;-96
2020/12/13 14:41:59;;;;;;;48.20;30.87;;;;;;;;;;6223670;23;20469;-94
2020/12/13 14:44:25;;;;;;;30.90;20.10;;;;;;;;;;6227283;23;20411;-94
2020/12/13 14:46:51;;;;;;;37.00;21.60;;;;;;;;;;6226911;23;20407;-94
2020/12/13 14:49:17;;;;;;;35.87;19.30;;;;;;;;;;6228286;23;20433;-95
2020/12/13 14:51:44;;;;;;;18.67;14.03;;;;;;;;;;6223767;23;20414;-95
2020/12/13 14:54:11;;;;;;;24.23;16.00;;;;;;;;;;6219205;23;20484;-93
2020/12/13 14:56:37;;;;;;;19.00;13.60;;;;;;;;;;6229266;23;20400;-92
2020/12/13 14:59:03;;;;;;;17.20;13.47;;;;;;;;;;6221935;23;20403;-94
2020/12/13 15:01:29;;;;;;;20.50;13.20;;;;;;;;;;6221711;23;20903;-96
2020/12/13 15:03:55;;;;;;;18.33;13.00;;;;;;;;;;6222836;23;20941;-94
2020/12/13 15:06:24;;;;;;;17.67;13.03;;;;;;;;;;6227032;23;20468;-96
2020/12/13 15:08:50;;;;;;;15.57;12.00;;;;;;;;;;6228810;23;20477;-95
2020/12/13 15:11:18;;;;;;;16.10;12.27;;;;;;;;;;6227345;23;20488;-96
2020/12/13 15:13:54;;;;;;;20.70;13.07;;;;;;;;;;6227911;23;20951;-96
2020/12/13 15:16:40;;;;;;;20.20;13.90;;;;;;;;;;6232913;23;20414;-93
2020/12/13 15:19:10;;;;;;;16.00;12.30;;;;;;;;;;6226471;23;20437;-96
2020/12/13 15:21:40;;;;;;;20.73;12.30;;;;;;;;;;6229015;23;20425;-96
2020/12/13 15:24:11;;;;;;;14.50;10.07;;;;;;;;;;6228862;23;20461;-96
2020/12/13 15:26:52;;;;;;;14.23;10.73;;;;;;;;;;6229102;23;20416;-95
2020/12/13 15:29:23;;;;;;;16.13;11.17;;;;;;;;;;6229762;23;20407;-96
2020/12/13 15:31:52;;;;;;;16.33;11.73;;;;;;;;;;6232788;23;20417;-96
2020/12/13 15:34:19;;;;;;;14.30;11.00;;;;;;;;;;6228870;23;20454;-95
2020/12/13 15:36:45;;;;;;;16.70;11.07;;;;;;;;;;6225095;23;20437;-94
2020/12/13 15:39:14;;;;;;;19.73;12.47;;;;;;;;;;6230646;23;20419;-96
2020/12/13 15:41:40;;;;;;;16.13;11.80;;;;;;;;;;6225500;23;20418;-96
2020/12/13 15:44:07;;;;;;;19.20;12.43;;;;;;;;;;6234049;23;20407;-96
2020/12/13 15:46:34;;;;;;;16.90;12.00;;;;;;;;;;6227276;23;20425;-94
2020/12/13 15:49:03;;;;;;;16.03;11.73;;;;;;;;;;6230108;23;20411;-96
2020/12/13 15:51:35;;;;;;;16.23;11.63;;;;;;;;;;6228134;23;20406;-96
2020/12/13 15:54:01;;;;;;;17.00;12.97;;;;;;;;;;6248753;23;20457;-95
2020/12/13 15:56:27;;;;;;;16.37;12.27;;;;;;;;;;6256769;23;20428;-95
2020/12/13 15:58:53;;;;;;;17.77;11.10;;;;;;;;;;6259579;23;20425;-95
2020/12/13 16:01:24;;;;;;;16.03;12.33;;;;;;;;;;6261216;23;20903;-96
2020/12/13 16:03:52;;;;;;;14.73;12.13;;;;;;;;;;6254022;23;20448;-96
2020/12/13 16:06:19;;;;;;;17.23;11.70;;;;;;;;;;6260017;23;20906;-95
2020/12/13 16:08:46;;;;;;;14.37;12.00;;;;;;;;;;6258606;23;20456;-95
2020/12/13 16:11:13;;;;;;;13.00;11.20;;;;;;;;;;6261527;23;20405;-96
2020/12/13 16:13:39;;;;;;;14.23;11.03;;;;;;;;;;6258611;23;20445;-96
2020/12/13 16:16:05;;;;;;;14.87;10.50;;;;;;;;;;6263102;23;20410;-94
2020/12/13 16:18:31;;;;;;;15.70;10.40;;;;;;;;;;6258705;23;20413;-96
2020/12/13 16:20:59;;;;;;;14.17;9.70;;;;;;;;;;6262637;23;20390;-96
2020/12/13 16:23:27;;;;;;;21.03;11.07;;;;;;;;;;6261668;22;20458;-96
2020/12/13 16:25:54;;;;;;;16.60;11.13;;;;;;;;;;6259047;23;20397;-94
2020/12/13 16:28:22;;;;;;;14.00;9.63;;;;;;;;;;6259507;22;20467;-96
2020/12/13 16:30:49;;;;;;;21.83;12.17;;;;;;;;;;6256648;23;20466;-96
2020/12/13 16:33:17;;;;;;;15.03;10.43;;;;;;;;;;6252473;23;20448;-95
2020/12/13 16:35:46;;;;;;;15.83;11.00;;;;;;;;;;6233689;23;20421;-96
2020/12/13 16:38:16;;;;;;;17.47;11.33;;;;;;;;;;6254942;23;20421;-96
2020/12/13 16:40:53;;;;;;;14.77;11.60;;;;;;;;;;6252753;23;20414;-96
2020/12/13 16:46:09;;;;;;;15.27;11.13;;;;;;;;;;6250829;23;20444;-96
2020/12/13 16:48:41;;;;;;;15.73;10.30;;;;;;;;;;6257561;23;20406;-93
2020/12/13 16:54:14;;;;;;;19.23;12.20;;;;;;;;;;6242087;22;20441;-96
2020/12/13 16:56:41;;;;;;;18.00;10.93;;;;;;;;;;6262360;23;20410;-95
2020/12/13 16:59:07;;;;;;;18.57;11.37;;;;;;;;;;6258709;23;20436;-95
2020/12/13 17:01:37;;;;;;;18.20;11.17;;;;;;;;;;6259057;23;21049;-95
2020/12/13 17:04:03;;;;;;;16.43;11.63;;;;;;;;;;6256236;23;20409;-95
2020/12/13 17:06:32;;;;;;;15.47;11.47;;;;;;;;;;6256325;23;20410;-96
2020/12/13 17:09:00;;;;;;;19.03;11.70;;;;;;;;;;6254850;23;20413;-96
2020/12/13 17:11:26;;;;;;;15.47;10.93;;;;;;;;;;6258555;23;20406;-96
2020/12/13 17:13:53;;;;;;;16.20;11.30;;;;;;;;;;6259515;23;20441;-96
2020/12/13 17:16:25;;;;;;;17.70;12.77;;;;;;;;;;6260557;23;20794;-96
2020/12/13 17:18:55;;;;;;;17.57;12.37;;;;;;;;;;6263014;22;20449;-96
2020/12/13 17:21:48;;;;;;;17.97;12.13;;;;;;;;;;6258206;23;20410;-96
2020/12/13 17:24:23;;;;;;;14.97;10.73;;;;;;;;;;6260077;23;20429;-96
2020/12/13 17:26:49;;;;;;;19.57;13.87;;;;;;;;;;6257654;23;20410;-95
2020/12/13 17:29:17;;;;;;;16.70;13.77;;;;;;;;;;6260496;23;20472;-96
2020/12/13 17:31:43;;;;;;;21.20;13.23;;;;;;;;;;6259647;23;20398;-96
2020/12/13 17:34:09;;;;;;;20.60;12.87;;;;;;;;;;6256754;23;20481;-96
2020/12/13 17:36:37;;;;;;;17.90;12.23;;;;;;;;;;6257840;23;20402;-96
2020/12/13 17:39:12;;;;;;;17.70;12.70;;;;;;;;;;6260222;23;20413;-96
2020/12/13 17:41:39;;;;;;;16.07;12.50;;;;;;;;;;6256159;23;20413;-95
2020/12/13 17:44:13;;;;;;;15.37;10.67;;;;;;;;;;6260403;23;20404;-96
2020/12/13 17:46:41;;;;;;;20.77;13.30;;;;;;;;;;6257732;23;20413;-94
2020/12/13 17:49:09;;;;;;;17.83;12.80;;;;;;;;;;6257168;23;20425;-94
2020/12/13 17:51:50;;;;;;;17.47;11.87;;;;;;;;;;6256960;23;20442;-96
2020/12/13 17:54:24;;;;;;;15.50;11.37;;;;;;;;;;6258774;22;20453;-93
2020/12/13 17:56:55;;;;;;;19.77;13.70;;;;;;;;;;6259176;23;20437;-94
2020/12/13 17:59:25;;;;;;;20.73;13.47;;;;;;;;;;6259485;23;20401;-96
2020/12/13 18:01:51;;;;;;;18.63;13.07;;;;;;;;;;6260938;23;20444;-96
2020/12/13 18:04:17;;;;;;;20.93;13.53;;;;;;;;;;6254203;23;20406;-96